createdAt,value
2022-08-18T00:02:05.251Z,25.27
2022-08-18T00:04:49.066Z,25.24
2022-08-18T00:07:21.768Z,25.20
2022-08-18T00:09:51.878Z,25.20
2022-08-18T00:12:25.068Z,25.18
2022-08-18T00:14:54.670Z,25.19
2022-08-18T00:17:23.756Z,25.17
2022-08-18T00:19:52.224Z,25.17
2022-08-18T00:22:22.417Z,25.17
2022-08-18T00:24:55.025Z,25.15
2022-08-18T00:27:28.547Z,25.13
2022-08-18T00:29:59.734Z,25.12
2022-08-18T00:32:33.638Z,25.10
2022-08-18T00:35:08.498Z,25.07
2022-08-18T00:37:37.375Z,25.08
2022-08-18T00:40:10.741Z,25.03
2022-08-18T00:42:45.879Z,25.01
2022-08-18T00:45:21.378Z,24.91
2022-08-18T00:47:49.713Z,24.85
2022-08-18T00:50:23.138Z,24.80
2022-08-18T00:52:58.465Z,24.75
2022-08-18T00:55:30.045Z,24.70
2022-08-18T00:58:06.636Z,24.66
2022-08-18T01:00:36.269Z,24.61
2022-08-18T01:03:13.042Z,24.57
2022-08-18T01:05:49.368Z,24.53
2022-08-18T01:08:21.367Z,24.51
2022-08-18T01:11:01.718Z,24.47
2022-08-18T01:13:34.067Z,24.40
2022-08-18T01:16:23.997Z,24.39
2022-08-18T01:19:09.894Z,24.35
2022-08-18T01:21:53.738Z,24.32
2022-08-18T01:24:51.433Z,24.28
2022-08-18T01:27:19.224Z,24.26
2022-08-18T01:29:48.955Z,24.24
2022-08-18T01:32:20.447Z,24.23
2022-08-18T01:34:50.519Z,24.21
2022-08-18T01:37:21.535Z,24.20
2022-08-18T01:41:25.813Z,24.17
2022-08-18T01:42:43.385Z,24.16
2022-08-18T01:45:13.463Z,24.14
2022-08-18T01:47:57.995Z,24.13
2022-08-18T01:50:27.455Z,24.11
2022-08-18T01:52:55.831Z,24.08
2022-08-18T01:55:28.379Z,24.06
2022-08-18T01:57:57.150Z,24.05
2022-08-18T02:00:26.356Z,24.05
2022-08-18T02:03:00.240Z,24.04
2022-08-18T02:08:07.412Z,23.96
2022-08-18T02:10:37.678Z,23.93
2022-08-18T02:13:06.267Z,23.91
2022-08-18T02:15:34.851Z,23.87
2022-08-18T02:18:03.478Z,23.86
2022-08-18T02:20:32.298Z,23.85
2022-08-18T02:23:00.648Z,23.83
2022-08-18T02:25:28.996Z,23.83
2022-08-18T02:27:59.652Z,23.81
2022-08-18T02:30:28.008Z,23.80
2022-08-18T02:32:56.734Z,23.77
2022-08-18T02:35:25.050Z,23.75
2022-08-18T02:37:54.547Z,23.73
2022-08-18T02:40:23.150Z,23.70
2022-08-18T02:42:52.801Z,23.67
2022-08-18T02:45:23.704Z,23.63
2022-08-18T02:47:54.324Z,23.59
2022-08-18T02:50:23.002Z,23.55
2022-08-18T02:52:51.412Z,23.51
2022-08-18T02:55:20.129Z,23.50
2022-08-18T02:57:50.118Z,23.47
2022-08-18T03:00:22.796Z,23.43
2022-08-18T03:02:53.498Z,23.41
2022-08-18T03:05:21.844Z,23.39
2022-08-18T03:07:51.191Z,23.36
2022-08-18T03:10:31.520Z,23.35
2022-08-18T03:13:02.665Z,23.31
2022-08-18T03:15:32.691Z,23.30
2022-08-18T03:18:02.440Z,23.28
2022-08-18T03:20:31.611Z,23.27
2022-08-18T03:23:05.865Z,23.25
2022-08-18T03:25:45.394Z,23.22
2022-08-18T03:28:14.287Z,23.21
2022-08-18T03:30:44.503Z,23.17
2022-08-18T03:33:12.930Z,23.11
2022-08-18T03:35:42.059Z,23.05
2022-08-18T03:38:10.459Z,23.01
2022-08-18T03:40:39.333Z,22.99
2022-08-18T03:43:23.617Z,22.94
2022-08-18T03:46:01.876Z,22.91
2022-08-18T03:48:30.563Z,22.90
2022-08-18T03:51:06.770Z,22.87
2022-08-18T03:53:35.633Z,22.84
2022-08-18T03:56:09.451Z,22.82
2022-08-18T03:58:38.357Z,22.80
2022-08-18T04:01:08.154Z,22.77
2022-08-18T04:03:36.981Z,22.76
2022-08-18T04:06:08.667Z,22.75
2022-08-18T04:08:40.481Z,22.72
2022-08-18T04:11:08.943Z,22.72
2022-08-18T04:13:37.691Z,22.70
2022-08-18T04:16:08.392Z,22.68
2022-08-18T04:18:37.095Z,22.67
2022-08-18T04:21:08.784Z,22.65
2022-08-18T04:23:39.474Z,22.65
2022-08-18T04:26:19.355Z,22.63
2022-08-18T04:28:47.870Z,22.61
2022-08-18T04:31:19.446Z,22.59
2022-08-18T04:33:47.751Z,22.57
2022-08-18T04:36:20.717Z,22.57
2022-08-18T04:38:49.877Z,22.54
2022-08-18T04:41:18.527Z,22.56
2022-08-18T04:43:48.751Z,22.55
2022-08-18T04:46:18.472Z,22.53
2022-08-18T04:48:58.788Z,22.51
2022-08-18T04:52:37.209Z,22.48
2022-08-18T04:54:17.397Z,22.50
2022-08-18T04:56:45.811Z,22.50
2022-08-18T04:59:15.708Z,22.49
2022-08-18T05:01:47.781Z,22.50
2022-08-18T05:04:18.550Z,22.50
2022-08-18T05:06:47.899Z,22.52
2022-08-18T05:09:23.133Z,22.55
2022-08-18T05:11:52.234Z,22.55
2022-08-18T05:14:21.449Z,22.57
2022-08-18T05:16:52.012Z,22.58
2022-08-18T05:19:26.068Z,22.60
2022-08-18T05:21:59.621Z,22.62
2022-08-18T05:24:37.004Z,22.63
2022-08-18T05:27:08.155Z,22.66
2022-08-18T05:29:41.858Z,22.70
2022-08-18T05:32:41.171Z,22.73
2022-08-18T05:35:08.624Z,22.74
2022-08-18T05:37:44.960Z,22.77
2022-08-18T05:40:16.576Z,22.80
2022-08-18T05:42:45.734Z,22.86
2022-08-18T05:45:18.017Z,22.87
2022-08-18T05:47:47.904Z,22.93
2022-08-18T05:50:21.041Z,22.97
2022-08-18T05:52:58.074Z,23.01
2022-08-18T05:55:50.185Z,23.08
2022-08-18T05:58:33.166Z,23.18
2022-08-18T06:01:08.881Z,23.26
2022-08-18T06:03:46.944Z,23.34
2022-08-18T06:06:21.771Z,23.43
2022-08-18T06:08:57.756Z,23.53
2022-08-18T06:11:26.824Z,23.62
2022-08-18T06:13:59.508Z,23.72
2022-08-18T06:16:44.497Z,23.83
2022-08-18T06:19:43.891Z,23.91
2022-08-18T06:22:24.430Z,23.99
2022-08-18T06:25:05.147Z,24.09
2022-08-18T06:27:51.181Z,24.21
2022-08-18T06:30:25.080Z,24.29
2022-08-18T06:33:15.109Z,24.39
2022-08-18T06:35:52.090Z,24.45
2022-08-18T06:38:39.619Z,24.52
2022-08-18T06:41:41.996Z,24.58
2022-08-18T06:44:09.863Z,24.64
2022-08-18T06:46:46.320Z,24.70
2022-08-18T06:49:26.460Z,24.79
2022-08-18T06:51:56.190Z,24.90
2022-08-18T06:54:30.859Z,24.99
2022-08-18T06:57:00.035Z,25.08
2022-08-18T06:59:31.242Z,25.19
2022-08-18T07:02:03.939Z,25.29
2022-08-18T07:04:38.458Z,25.38
2022-08-18T07:07:22.025Z,25.48
2022-08-18T07:09:53.284Z,25.57
2022-08-18T07:12:32.153Z,25.64
2022-08-18T07:15:05.699Z,25.69
2022-08-18T07:17:43.229Z,25.77
2022-08-18T07:20:23.716Z,25.85
2022-08-18T07:23:08.272Z,25.89
2022-08-18T07:25:43.507Z,25.96
2022-08-18T07:28:30.687Z,26.02
2022-08-18T07:31:18.252Z,26.06
2022-08-18T07:33:55.731Z,26.12
2022-08-18T07:36:29.248Z,26.16
2022-08-18T07:39:08.640Z,26.18
2022-08-18T07:41:45.007Z,26.19
2022-08-18T07:44:25.296Z,26.19
2022-08-18T07:47:01.123Z,26.20
2022-08-18T07:49:36.246Z,26.21
2022-08-18T07:52:35.824Z,26.19
2022-08-18T07:55:10.002Z,26.17
2022-08-18T07:57:55.603Z,26.16
2022-08-18T08:03:35.791Z,26.16
2022-08-18T08:06:11.712Z,26.16
2022-08-18T08:08:47.346Z,26.19
2022-08-18T08:11:28.813Z,26.24
2022-08-18T08:14:11.943Z,26.28
2022-08-18T08:16:49.806Z,26.34
2022-08-18T08:20:02.889Z,26.41
2022-08-18T08:22:38.847Z,26.51
2022-08-18T08:25:44.656Z,26.61
2022-08-18T08:28:23.368Z,26.69
2022-08-18T08:31:33.059Z,26.78
2022-08-18T08:34:05.300Z,26.87
2022-08-18T08:36:39.198Z,27.01
2022-08-18T08:39:15.636Z,27.15
2022-08-18T08:41:51.318Z,27.28
2022-08-18T08:44:26.159Z,27.41
2022-08-18T08:47:00.240Z,27.54
2022-08-18T08:49:38.281Z,27.66
2022-08-18T08:52:18.738Z,27.76
2022-08-18T08:54:52.374Z,27.86
2022-08-18T08:57:27.967Z,27.98
2022-08-18T08:59:59.845Z,28.09
2022-08-18T09:02:48.164Z,28.26
2022-08-18T09:05:21.469Z,28.41
2022-08-18T09:08:26.459Z,28.59
2022-08-18T09:11:50.347Z,28.81
2022-08-18T09:14:58.342Z,29.01
2022-08-18T09:18:03.199Z,29.21
2022-08-18T09:21:05.129Z,29.44
2022-08-18T09:23:43.907Z,29.62
2022-08-18T09:26:40.105Z,29.81
2022-08-18T09:29:24.175Z,29.98
2022-08-18T09:32:44.490Z,30.11
2022-08-18T09:35:44.952Z,30.16
2022-08-18T09:38:53.370Z,30.22
2022-08-18T09:41:43.355Z,30.23
2022-08-18T09:44:21.197Z,30.27
2022-08-18T09:47:00.122Z,30.30
2022-08-18T09:52:58.967Z,30.35
2022-08-18T09:58:58.781Z,30.39
2022-08-18T10:01:41.145Z,30.41
2022-08-18T10:04:32.650Z,30.47
2022-08-18T10:07:43.524Z,30.54
2022-08-18T10:11:02.118Z,30.65
2022-08-18T10:13:21.584Z,30.83
2022-08-18T10:16:10.215Z,31.01
2022-08-18T10:19:14.642Z,31.17
2022-08-18T10:22:08.168Z,31.35
2022-08-18T10:24:43.742Z,31.53
2022-08-18T10:27:49.234Z,31.71
2022-08-18T10:34:16.518Z,32.06
2022-08-18T10:36:53.108Z,32.22
2022-08-18T10:39:24.448Z,32.37
2022-08-18T10:42:04.392Z,32.50
2022-08-18T10:44:42.846Z,32.63
2022-08-18T10:47:24.941Z,32.69
2022-08-18T10:50:05.584Z,32.70
2022-08-18T10:53:17.066Z,32.73
2022-08-18T10:55:57.088Z,32.76
2022-08-18T10:58:55.122Z,32.76
2022-08-18T11:01:54.250Z,32.79
2022-08-18T11:04:34.461Z,32.82
2022-08-18T11:07:12.103Z,32.93
2022-08-18T11:09:50.637Z,33.02
2022-08-18T11:13:00.366Z,33.12
2022-08-18T11:15:50.959Z,33.23
2022-08-18T11:18:42.641Z,33.36
2022-08-18T11:21:34.239Z,33.49
2022-08-18T11:24:15.932Z,33.58
2022-08-18T11:26:52.473Z,33.67
2022-08-18T11:29:32.152Z,33.78
2022-08-18T11:32:11.265Z,33.86
2022-08-18T11:34:52.034Z,33.95
2022-08-18T11:37:28.183Z,34.03
2022-08-18T11:43:40.953Z,34.21
2022-08-18T11:46:16.384Z,34.28
2022-08-18T11:48:52.704Z,34.28
2022-08-18T11:51:26.983Z,34.26
2022-08-18T11:54:00.046Z,34.24
2022-08-18T11:56:35.756Z,34.28
2022-08-18T11:59:09.251Z,34.33
2022-08-18T12:01:51.265Z,34.38
2022-08-18T12:04:31.337Z,34.45
2022-08-18T12:07:06.009Z,34.54
2022-08-18T12:12:32.572Z,34.67
2022-08-18T12:15:13.922Z,34.72
2022-08-18T12:20:36.580Z,34.72
2022-08-18T12:23:04.938Z,34.79
2022-08-18T12:25:34.157Z,34.80
2022-08-18T12:28:02.549Z,34.85
2022-08-18T12:30:30.858Z,34.85
2022-08-18T12:33:05.615Z,34.82
2022-08-18T12:35:41.941Z,34.81
2022-08-18T12:38:13.733Z,34.80
2022-08-18T12:40:44.277Z,34.82
2022-08-18T12:43:13.282Z,34.83
2022-08-18T12:45:42.434Z,34.84
2022-08-18T12:48:11.968Z,34.86
2022-08-18T12:50:54.266Z,34.86
2022-08-18T12:53:29.032Z,34.87
2022-08-18T12:55:59.287Z,34.87
2022-08-18T12:58:29.540Z,34.86
2022-08-18T13:00:58.740Z,34.87
2022-08-18T13:03:27.320Z,34.89
2022-08-18T13:05:57.445Z,34.88
2022-08-18T13:08:33.816Z,34.87
2022-08-18T13:11:21.701Z,34.84
2022-08-18T13:13:55.932Z,34.84
2022-08-18T13:16:38.523Z,34.85
2022-08-18T13:19:08.108Z,34.85
2022-08-18T13:21:42.939Z,34.85
2022-08-18T13:24:12.771Z,34.89
2022-08-18T13:26:46.162Z,34.89
2022-08-18T13:29:17.568Z,34.90
2022-08-18T13:31:55.894Z,34.91
2022-08-18T13:34:29.738Z,34.89
2022-08-18T13:36:59.930Z,34.86
2022-08-18T13:39:33.680Z,34.84
2022-08-18T13:42:26.717Z,34.80
2022-08-18T13:44:53.247Z,34.77
2022-08-18T13:47:22.641Z,34.74
2022-08-18T13:49:58.394Z,34.72
2022-08-18T13:52:41.154Z,34.67
2022-08-18T13:55:16.779Z,34.61
2022-08-18T13:57:53.432Z,34.58
2022-08-18T14:00:29.377Z,34.52
2022-08-18T14:03:03.051Z,34.45
2022-08-18T14:05:51.773Z,34.38
2022-08-18T14:08:22.110Z,34.30
2022-08-18T14:10:57.120Z,34.23
2022-08-18T14:13:25.563Z,34.16
2022-08-18T14:15:59.185Z,34.09
2022-08-18T14:18:30.807Z,34.03
2022-08-18T14:21:22.985Z,33.96
2022-08-18T14:24:14.357Z,33.85
2022-08-18T14:26:50.108Z,33.74
2022-08-18T14:29:46.337Z,33.67
2022-08-18T14:32:09.320Z,33.59
2022-08-18T14:34:50.647Z,33.53
2022-08-18T14:37:19.867Z,33.47
2022-08-18T14:39:53.861Z,33.41
2022-08-18T14:42:41.239Z,33.37
2022-08-18T14:45:31.574Z,33.33
2022-08-18T14:48:06.604Z,33.31
2022-08-18T14:50:49.064Z,33.29
2022-08-18T14:53:20.203Z,33.28
2022-08-18T14:55:52.442Z,33.26
2022-08-18T14:58:21.064Z,33.25
2022-08-18T15:00:56.482Z,33.23
2022-08-18T15:03:31.480Z,33.19
2022-08-18T15:06:04.866Z,33.14
2022-08-18T15:08:35.336Z,33.13
2022-08-18T15:11:11.738Z,33.11
2022-08-18T15:13:43.559Z,33.12
2022-08-18T15:16:14.499Z,33.08
2022-08-18T15:18:43.219Z,33.07
2022-08-18T15:21:35.567Z,33.07
2022-08-18T15:24:25.037Z,33.05
2022-08-18T15:27:03.259Z,33.07
2022-08-18T15:29:35.853Z,33.06
2022-08-18T15:32:10.103Z,33.09
2022-08-18T15:34:47.246Z,33.08
2022-08-18T15:37:24.162Z,33.07
2022-08-18T15:40:05.888Z,33.05
2022-08-18T15:42:35.633Z,33.06
2022-08-18T15:45:11.954Z,33.07
2022-08-18T15:47:42.598Z,33.05
2022-08-18T15:50:25.747Z,33.02
2022-08-18T15:52:58.127Z,32.98
2022-08-18T15:55:35.876Z,32.94
2022-08-18T15:58:11.149Z,32.90
2022-08-18T16:00:43.826Z,32.84
2022-08-18T16:03:16.817Z,32.77
2022-08-18T16:05:52.950Z,32.70
2022-08-18T16:08:23.914Z,32.64
2022-08-18T16:10:54.019Z,32.56
2022-08-18T16:13:26.450Z,32.49
2022-08-18T16:15:54.782Z,32.42
2022-08-18T16:18:23.158Z,32.35
2022-08-18T16:20:52.746Z,32.28
2022-08-18T16:23:25.431Z,32.21
2022-08-18T16:25:53.751Z,32.15
2022-08-18T16:28:34.769Z,32.06
2022-08-18T16:31:04.141Z,31.98
2022-08-18T16:33:32.639Z,31.90
2022-08-18T16:36:05.875Z,31.83
2022-08-18T16:38:34.570Z,31.77
2022-08-18T16:41:11.306Z,31.70
2022-08-18T16:43:47.363Z,31.63
2022-08-18T16:46:21.389Z,31.57
2022-08-18T16:48:51.590Z,31.51
2022-08-18T16:51:24.078Z,31.43
2022-08-18T16:53:54.478Z,31.38
2022-08-18T16:56:26.028Z,31.31
2022-08-18T16:59:13.634Z,31.25
2022-08-18T17:02:00.175Z,31.17
2022-08-18T17:04:33.585Z,31.10
2022-08-18T17:07:04.550Z,31.03
2022-08-18T17:09:34.267Z,30.97
2022-08-18T17:12:03.369Z,30.91
2022-08-18T17:14:34.689Z,30.87
2022-08-18T17:17:03.286Z,30.81
2022-08-18T17:19:35.055Z,30.76
2022-08-18T17:22:05.268Z,30.70
2022-08-18T17:24:33.975Z,30.66
2022-08-18T17:27:12.277Z,30.57
2022-08-18T17:30:05.200Z,30.50
2022-08-18T17:32:44.138Z,30.45
2022-08-18T17:35:17.801Z,30.39
2022-08-18T17:37:54.580Z,30.37
2022-08-18T17:40:32.130Z,30.31
2022-08-18T17:43:01.896Z,30.28
2022-08-18T17:45:34.868Z,30.24
2022-08-18T17:48:09.945Z,30.17
2022-08-18T17:51:02.576Z,30.12
2022-08-18T17:53:34.233Z,30.06
2022-08-18T17:56:09.228Z,30.00
2022-08-18T17:58:42.359Z,29.95
2022-08-18T18:01:13.713Z,29.90
2022-08-18T18:03:44.103Z,29.84
2022-08-18T18:06:20.243Z,29.79
2022-08-18T18:08:55.383Z,29.73
2022-08-18T18:11:35.118Z,29.68
2022-08-18T18:14:26.035Z,29.62
2022-08-18T18:17:11.785Z,29.57
2022-08-18T18:19:43.806Z,29.50
2022-08-18T18:22:20.954Z,29.44
2022-08-18T18:24:53.933Z,29.39
2022-08-18T18:27:35.554Z,29.34
2022-08-18T18:30:08.103Z,29.29
2022-08-18T18:32:59.447Z,29.19
2022-08-18T18:35:30.894Z,29.16
2022-08-18T18:38:05.618Z,29.11
2022-08-18T18:40:39.237Z,29.07
2022-08-18T18:43:24.961Z,29.00
2022-08-18T18:46:29.921Z,28.92
2022-08-18T18:49:24.628Z,28.86
2022-08-18T18:52:05.035Z,28.84
2022-08-18T18:54:59.704Z,28.81
2022-08-18T18:57:39.858Z,28.76
2022-08-18T19:00:20.266Z,28.74
2022-08-18T19:03:05.123Z,28.69
2022-08-18T19:05:40.024Z,28.66
2022-08-18T19:08:28.404Z,28.62
2022-08-18T19:11:07.797Z,28.59
2022-08-18T19:13:43.458Z,28.55
2022-08-18T19:16:23.338Z,28.50
2022-08-18T19:19:36.027Z,28.49
2022-08-18T19:22:03.083Z,28.44
2022-08-18T19:24:42.362Z,28.40
2022-08-18T19:27:23.441Z,28.36
2022-08-18T19:29:56.915Z,28.36
2022-08-18T19:32:39.625Z,28.32
2022-08-18T19:35:13.872Z,28.29
2022-08-18T19:38:04.610Z,28.27
2022-08-18T19:40:45.009Z,28.25
2022-08-18T19:43:26.635Z,28.22
2022-08-18T19:46:10.568Z,28.19
2022-08-18T19:48:44.715Z,28.17
2022-08-18T19:51:28.471Z,28.15
2022-08-18T19:54:28.774Z,28.13
2022-08-18T19:57:22.635Z,28.12
2022-08-18T20:00:16.227Z,28.09
2022-08-18T20:03:18.553Z,28.05
2022-08-18T20:05:59.258Z,28.05
2022-08-18T20:09:25.159Z,28.00
2022-08-18T20:12:14.045Z,27.97
2022-08-18T20:14:43.687Z,27.95
2022-08-18T20:17:22.631Z,27.91
2022-08-18T20:20:18.278Z,27.88
2022-08-18T20:22:48.588Z,27.85
2022-08-18T20:25:42.849Z,27.77
2022-08-18T20:28:34.175Z,27.75
2022-08-18T20:31:17.346Z,27.70
2022-08-18T20:34:03.991Z,27.68
2022-08-18T20:36:37.538Z,27.64
2022-08-18T20:39:42.922Z,27.58
2022-08-18T20:42:53.680Z,27.52
2022-08-18T20:45:42.526Z,27.49
2022-08-18T20:48:40.227Z,27.45
2022-08-18T20:51:12.432Z,27.43
2022-08-18T20:54:13.234Z,27.36
2022-08-18T20:56:48.433Z,27.33
2022-08-18T20:59:23.775Z,27.27
2022-08-18T21:01:59.569Z,27.24
2022-08-18T21:04:46.466Z,27.19
2022-08-18T21:07:35.943Z,27.13
2022-08-18T21:10:13.866Z,27.08
2022-08-18T21:12:52.120Z,27.03
2022-08-18T21:15:27.176Z,26.97
2022-08-18T21:18:00.970Z,26.91
2022-08-18T21:20:31.452Z,26.88
2022-08-18T21:23:07.843Z,26.81
2022-08-18T21:25:37.043Z,26.77
2022-08-18T21:28:07.751Z,26.71
2022-08-18T21:30:38.028Z,26.66
2022-08-18T21:33:21.126Z,26.60
2022-08-18T21:35:49.585Z,26.56
2022-08-18T21:38:27.923Z,26.50
2022-08-18T21:41:01.108Z,26.44
2022-08-18T21:43:49.039Z,26.39
2022-08-18T21:46:27.771Z,26.32
2022-08-18T21:48:59.690Z,26.27
2022-08-18T21:51:31.491Z,26.23
2022-08-18T21:54:01.120Z,26.19
2022-08-18T21:56:32.556Z,26.13
2022-08-18T21:59:13.480Z,26.07
2022-08-18T22:01:52.454Z,26.01
2022-08-18T22:04:28.119Z,25.99
2022-08-18T22:07:01.237Z,25.94
2022-08-18T22:09:52.497Z,25.89
2022-08-18T22:12:48.304Z,25.83
2022-08-18T22:15:21.447Z,25.77
2022-08-18T22:17:57.136Z,25.69
2022-08-18T22:20:48.157Z,25.63
2022-08-18T22:23:55.199Z,25.57
2022-08-18T22:26:28.106Z,25.52
2022-08-18T22:29:01.958Z,25.47
2022-08-18T22:31:34.043Z,25.44
2022-08-18T22:34:07.676Z,25.40
2022-08-18T22:36:41.154Z,25.35
2022-08-18T22:39:12.934Z,25.33
2022-08-18T22:41:42.699Z,25.28
2022-08-18T22:44:11.093Z,25.26
2022-08-18T22:46:39.461Z,25.22
2022-08-18T22:49:09.396Z,25.17
2022-08-18T22:51:38.044Z,25.13
2022-08-18T22:54:09.802Z,25.09
2022-08-18T22:56:39.352Z,25.05
2022-08-18T22:59:22.510Z,25.01
2022-08-18T23:01:52.545Z,24.96
2022-08-18T23:04:25.450Z,24.93
2022-08-18T23:06:54.808Z,24.90
2022-08-18T23:09:26.772Z,24.84
2022-08-18T23:11:58.072Z,24.78
2022-08-18T23:14:28.282Z,24.74
2022-08-18T23:16:56.560Z,24.70
2022-08-18T23:19:26.471Z,24.66
2022-08-18T23:21:55.216Z,24.64
2022-08-18T23:24:24.882Z,24.60
2022-08-18T23:26:53.521Z,24.57
2022-08-18T23:29:23.366Z,24.53
2022-08-18T23:31:52.762Z,24.49
2022-08-18T23:34:27.255Z,24.46
2022-08-18T23:36:58.854Z,24.44
2022-08-18T23:39:28.844Z,24.42
2022-08-18T23:41:57.494Z,24.38
2022-08-18T23:44:28.011Z,24.35
2022-08-18T23:46:57.934Z,24.33
2022-08-18T23:49:29.125Z,24.28
2022-08-18T23:51:58.534Z,24.26
2022-08-18T23:54:29.524Z,24.23
2022-08-18T23:56:58.254Z,24.23
2022-08-18T23:59:28.496Z,24.23
